sensor_id;sensor_type;location;lat;lon;timestamp;P1;durP1;ratioP1;P2;durP2;ratioP2
1082;SDS011;530;51.448;7.238;2023-04-03T00:01:07;7.10;;;6.40;;
1082;SDS011;530;51.448;7.238;2023-04-03T00:03:33;9.30;;;7.57;;
1082;SDS011;530;51.448;7.238;2023-04-03T00:05:58;7.90;;;7.00;;
1082;SDS011;530;51.448;7.238;2023-04-03T00:08:25;8.33;;;7.50;;
1082;SDS011;530;51.448;7.238;2023-04-03T00:10:50;11.40;;;8.20;;
1082;SDS011;530;51.448;7.238;2023-04-03T00:13:16;9.80;;;7.53;;
1082;SDS011;530;51.448;7.238;2023-04-03T00:15:42;7.80;;;7.07;;
1082;SDS011;530;51.448;7.238;2023-04-03T00:18:08;8.93;;;7.30;;
1082;SDS011;530;51.448;7.238;2023-04-03T00:20:34;8.50;;;7.70;;
1082;SDS011;530;51.448;7.238;2023-04-03T00:23:00;9.13;;;7.93;;
1082;SDS011;530;51.448;7.238;2023-04-03T00:25:26;9.70;;;7.50;;
1082;SDS011;530;51.448;7.238;2023-04-03T00:27:52;9.07;;;8.17;;
1082;SDS011;530;51.448;7.238;2023-04-03T00:30:19;8.60;;;7.70;;
1082;SDS011;530;51.448;7.238;2023-04-03T00:32:47;8.57;;;7.77;;
1082;SDS011;530;51.448;7.238;2023-04-03T00:35:14;10.80;;;7.80;;
1082;SDS011;530;51.448;7.238;2023-04-03T00:37:43;9.70;;;7.90;;
1082;SDS011;530;51.448;7.238;2023-04-03T00:40:10;10.50;;;8.00;;
1082;SDS011;530;51.448;7.238;2023-04-03T00:42:39;8.73;;;7.87;;
1082;SDS011;530;51.448;7.238;2023-04-03T00:47:38;11.07;;;9.17;;
1082;SDS011;530;51.448;7.238;2023-04-03T00:50:05;12.00;;;9.70;;
1082;SDS011;530;51.448;7.238;2023-04-03T00:52:32;9.80;;;8.53;;
1082;SDS011;530;51.448;7.238;2023-04-03T00:54:59;10.13;;;8.97;;
1082;SDS011;530;51.448;7.238;2023-04-03T00:57:29;11.50;;;9.20;;
1082;SDS011;530;51.448;7.238;2023-04-03T00:59:57;10.27;;;9.23;;
1082;SDS011;530;51.448;7.238;2023-04-03T01:02:28;10.80;;;9.70;;
1082;SDS011;530;51.448;7.238;2023-04-03T01:04:53;11.50;;;10.30;;
1082;SDS011;530;51.448;7.238;2023-04-03T01:07:20;12.33;;;9.33;;
1082;SDS011;530;51.448;7.238;2023-04-03T01:09:50;9.80;;;8.80;;
1082;SDS011;530;51.448;7.238;2023-04-03T01:12:34;12.33;;;9.73;;
1082;SDS011;530;51.448;7.238;2023-04-03T01:15:08;10.30;;;8.40;;
1082;SDS011;530;51.448;7.238;2023-04-03T01:17:46;11.17;;;8.60;;
1082;SDS011;530;51.448;7.238;2023-04-03T01:22:59;11.80;;;8.10;;
1082;SDS011;530;51.448;7.238;2023-04-03T01:25:34;8.07;;;7.27;;
1082;SDS011;530;51.448;7.238;2023-04-03T01:28:03;13.00;;;7.67;;
1082;SDS011;530;51.448;7.238;2023-04-03T01:30:35;8.70;;;7.80;;
1082;SDS011;530;51.448;7.238;2023-04-03T01:33:06;11.03;;;7.47;;
1082;SDS011;530;51.448;7.238;2023-04-03T01:35:32;8.37;;;7.30;;
1082;SDS011;530;51.448;7.238;2023-04-03T01:37:57;7.83;;;6.77;;
1082;SDS011;530;51.448;7.238;2023-04-03T01:40:23;7.10;;;6.40;;
1082;SDS011;530;51.448;7.238;2023-04-03T01:42:49;9.50;;;7.13;;
1082;SDS011;530;51.448;7.238;2023-04-03T01:45:14;8.03;;;7.17;;
1082;SDS011;530;51.448;7.238;2023-04-03T01:47:40;6.70;;;5.63;;
1082;SDS011;530;51.448;7.238;2023-04-03T01:50:06;8.97;;;6.40;;
1082;SDS011;530;51.448;7.238;2023-04-03T01:52:31;7.53;;;5.27;;
1082;SDS011;530;51.448;7.238;2023-04-03T01:54:57;5.53;;;5.00;;
1082;SDS011;530;51.448;7.238;2023-04-03T01:57:23;8.70;;;5.33;;
1082;SDS011;530;51.448;7.238;2023-04-03T01:59:48;8.40;;;5.80;;
1082;SDS011;530;51.448;7.238;2023-04-03T02:02:14;5.60;;;5.07;;
1082;SDS011;530;51.448;7.238;2023-04-03T02:04:40;6.37;;;5.00;;
1082;SDS011;530;51.448;7.238;2023-04-03T02:07:06;5.20;;;4.80;;
1082;SDS011;530;51.448;7.238;2023-04-03T02:09:32;5.27;;;4.70;;
1082;SDS011;530;51.448;7.238;2023-04-03T02:11:57;7.50;;;4.67;;
1082;SDS011;530;51.448;7.238;2023-04-03T02:14:23;5.03;;;4.00;;
1082;SDS011;530;51.448;7.238;2023-04-03T02:16:49;5.03;;;4.43;;
1082;SDS011;530;51.448;7.238;2023-04-03T02:19:15;5.27;;;4.20;;
1082;SDS011;530;51.448;7.238;2023-04-03T02:21:41;5.20;;;4.00;;
1082;SDS011;530;51.448;7.238;2023-04-03T02:24:06;5.83;;;4.00;;
1082;SDS011;530;51.448;7.238;2023-04-03T02:26:32;5.70;;;4.43;;
1082;SDS011;530;51.448;7.238;2023-04-03T02:28:58;5.43;;;4.60;;
1082;SDS011;530;51.448;7.238;2023-04-03T02:31:23;6.03;;;4.03;;
1082;SDS011;530;51.448;7.238;2023-04-03T02:33:49;5.40;;;4.30;;
1082;SDS011;530;51.448;7.238;2023-04-03T02:36:15;6.50;;;4.30;;
1082;SDS011;530;51.448;7.238;2023-04-03T02:38:41;4.20;;;3.40;;
1082;SDS011;530;51.448;7.238;2023-04-03T02:41:07;5.40;;;4.23;;
1082;SDS011;530;51.448;7.238;2023-04-03T02:43:35;7.03;;;4.40;;
1082;SDS011;530;51.448;7.238;2023-04-03T02:46:01;7.07;;;4.27;;
1082;SDS011;530;51.448;7.238;2023-04-03T02:48:26;5.60;;;3.67;;
1082;SDS011;530;51.448;7.238;2023-04-03T02:50:52;7.20;;;3.90;;
1082;SDS011;530;51.448;7.238;2023-04-03T02:53:18;4.40;;;3.53;;
1082;SDS011;530;51.448;7.238;2023-04-03T02:55:44;4.30;;;3.77;;
1082;SDS011;530;51.448;7.238;2023-04-03T02:58:10;8.13;;;3.93;;
1082;SDS011;530;51.448;7.238;2023-04-03T03:00:36;5.27;;;3.57;;
1082;SDS011;530;51.448;7.238;2023-04-03T03:03:02;3.63;;;2.90;;
1082;SDS011;530;51.448;7.238;2023-04-03T03:05:28;3.20;;;2.83;;
1082;SDS011;530;51.448;7.238;2023-04-03T03:07:54;5.17;;;3.33;;
1082;SDS011;530;51.448;7.238;2023-04-03T03:10:20;4.40;;;3.13;;
1082;SDS011;530;51.448;7.238;2023-04-03T03:12:46;4.23;;;3.30;;
1082;SDS011;530;51.448;7.238;2023-04-03T03:15:12;4.70;;;3.23;;
1082;SDS011;530;51.448;7.238;2023-04-03T03:17:38;5.17;;;3.10;;
1082;SDS011;530;51.448;7.238;2023-04-03T03:20:04;4.20;;;3.50;;
1082;SDS011;530;51.448;7.238;2023-04-03T03:22:30;4.40;;;3.07;;
1082;SDS011;530;51.448;7.238;2023-04-03T03:24:56;4.47;;;2.90;;
1082;SDS011;530;51.448;7.238;2023-04-03T03:27:22;6.80;;;2.87;;
1082;SDS011;530;51.448;7.238;2023-04-03T03:29:49;4.43;;;2.90;;
1082;SDS011;530;51.448;7.238;2023-04-03T03:32:14;5.70;;;2.70;;
1082;SDS011;530;51.448;7.238;2023-04-03T03:34:40;4.73;;;2.83;;
1082;SDS011;530;51.448;7.238;2023-04-03T03:37:06;3.90;;;2.30;;
1082;SDS011;530;51.448;7.238;2023-04-03T03:39:31;3.80;;;2.40;;
1082;SDS011;530;51.448;7.238;2023-04-03T03:41:57;4.53;;;2.87;;
1082;SDS011;530;51.448;7.238;2023-04-03T03:44:22;6.57;;;2.40;;
1082;SDS011;530;51.448;7.238;2023-04-03T03:46:48;4.93;;;2.30;;
1082;SDS011;530;51.448;7.238;2023-04-03T03:49:14;5.00;;;2.20;;
1082;SDS011;530;51.448;7.238;2023-04-03T03:51:39;3.60;;;2.50;;
1082;SDS011;530;51.448;7.238;2023-04-03T03:54:05;4.73;;;2.40;;
1082;SDS011;530;51.448;7.238;2023-04-03T03:56:31;3.53;;;2.23;;
1082;SDS011;530;51.448;7.238;2023-04-03T03:58:57;4.60;;;2.60;;
1082;SDS011;530;51.448;7.238;2023-04-03T04:01:23;3.73;;;2.40;;
1082;SDS011;530;51.448;7.238;2023-04-03T04:03:49;2.43;;;2.03;;
1082;SDS011;530;51.448;7.238;2023-04-03T04:06:15;3.63;;;2.50;;
1082;SDS011;530;51.448;7.238;2023-04-03T04:08:41;3.30;;;2.37;;
1082;SDS011;530;51.448;7.238;2023-04-03T04:11:07;2.03;;;1.83;;
1082;SDS011;530;51.448;7.238;2023-04-03T04:13:33;3.17;;;2.43;;
1082;SDS011;530;51.448;7.238;2023-04-03T04:15:59;4.57;;;2.50;;
1082;SDS011;530;51.448;7.238;2023-04-03T04:18:24;3.90;;;2.23;;
1082;SDS011;530;51.448;7.238;2023-04-03T04:20:50;6.50;;;2.07;;
1082;SDS011;530;51.448;7.238;2023-04-03T04:23:16;4.43;;;2.40;;
1082;SDS011;530;51.448;7.238;2023-04-03T04:25:46;3.00;;;2.47;;
1082;SDS011;530;51.448;7.238;2023-04-03T04:28:12;5.00;;;2.20;;
1082;SDS011;530;51.448;7.238;2023-04-03T04:30:39;3.93;;;2.20;;
1082;SDS011;530;51.448;7.238;2023-04-03T04:33:04;3.20;;;1.90;;
1082;SDS011;530;51.448;7.238;2023-04-03T04:35:30;2.50;;;2.20;;
1082;SDS011;530;51.448;7.238;2023-04-03T04:37:56;3.33;;;2.20;;
1082;SDS011;530;51.448;7.238;2023-04-03T04:40:21;5.57;;;2.50;;
1082;SDS011;530;51.448;7.238;2023-04-03T04:42:47;4.27;;;2.23;;
1082;SDS011;530;51.448;7.238;2023-04-03T04:45:13;4.13;;;2.00;;
1082;SDS011;530;51.448;7.238;2023-04-03T04:47:40;4.60;;;2.10;;
1082;SDS011;530;51.448;7.238;2023-04-03T04:50:06;2.30;;;1.80;;
1082;SDS011;530;51.448;7.238;2023-04-03T04:52:32;3.30;;;1.90;;
1082;SDS011;530;51.448;7.238;2023-04-03T04:54:58;5.20;;;2.50;;
1082;SDS011;530;51.448;7.238;2023-04-03T04:57:24;3.43;;;1.90;;
1082;SDS011;530;51.448;7.238;2023-04-03T04:59:50;4.67;;;2.57;;
1082;SDS011;530;51.448;7.238;2023-04-03T05:02:16;3.97;;;2.40;;
1082;SDS011;530;51.448;7.238;2023-04-03T05:04:42;3.47;;;2.40;;
1082;SDS011;530;51.448;7.238;2023-04-03T05:07:08;2.83;;;1.90;;
1082;SDS011;530;51.448;7.238;2023-04-03T05:09:33;4.90;;;3.30;;
1082;SDS011;530;51.448;7.238;2023-04-03T05:11:59;3.10;;;2.20;;
1082;SDS011;530;51.448;7.238;2023-04-03T05:14:25;3.10;;;2.70;;
1082;SDS011;530;51.448;7.238;2023-04-03T05:16:50;6.07;;;2.77;;
1082;SDS011;530;51.448;7.238;2023-04-03T05:19:19;3.83;;;2.20;;
1082;SDS011;530;51.448;7.238;2023-04-03T05:21:46;4.27;;;2.23;;
1082;SDS011;530;51.448;7.238;2023-04-03T05:24:13;7.77;;;2.70;;
1082;SDS011;530;51.448;7.238;2023-04-03T05:26:39;3.40;;;2.00;;
1082;SDS011;530;51.448;7.238;2023-04-03T05:29:05;3.60;;;2.00;;
1082;SDS011;530;51.448;7.238;2023-04-03T05:31:31;3.27;;;2.13;;
1082;SDS011;530;51.448;7.238;2023-04-03T05:33:57;8.37;;;2.53;;
1082;SDS011;530;51.448;7.238;2023-04-03T05:36:23;3.73;;;1.80;;
1082;SDS011;530;51.448;7.238;2023-04-03T05:38:48;6.17;;;2.70;;
1082;SDS011;530;51.448;7.238;2023-04-03T05:41:14;3.47;;;2.07;;
1082;SDS011;530;51.448;7.238;2023-04-03T05:43:40;4.67;;;2.30;;
1082;SDS011;530;51.448;7.238;2023-04-03T05:46:10;4.40;;;2.63;;
1082;SDS011;530;51.448;7.238;2023-04-03T05:48:37;3.43;;;2.30;;
1082;SDS011;530;51.448;7.238;2023-04-03T05:51:03;4.67;;;3.03;;
1082;SDS011;530;51.448;7.238;2023-04-03T05:53:29;7.37;;;3.20;;
1082;SDS011;530;51.448;7.238;2023-04-03T05:55:57;4.60;;;2.80;;
1082;SDS011;530;51.448;7.238;2023-04-03T05:58:23;3.83;;;2.57;;
1082;SDS011;530;51.448;7.238;2023-04-03T06:00:48;6.27;;;2.80;;
1082;SDS011;530;51.448;7.238;2023-04-03T06:03:14;4.77;;;2.70;;
1082;SDS011;530;51.448;7.238;2023-04-03T06:05:40;4.80;;;2.40;;
1082;SDS011;530;51.448;7.238;2023-04-03T06:08:06;6.13;;;3.13;;
1082;SDS011;530;51.448;7.238;2023-04-03T06:10:32;4.40;;;3.13;;
1082;SDS011;530;51.448;7.238;2023-04-03T06:12:58;5.00;;;3.50;;
1082;SDS011;530;51.448;7.238;2023-04-03T06:15:23;2.67;;;2.43;;
1082;SDS011;530;51.448;7.238;2023-04-03T06:17:49;5.20;;;2.50;;
1082;SDS011;530;51.448;7.238;2023-04-03T06:20:15;3.07;;;2.10;;
1082;SDS011;530;51.448;7.238;2023-04-03T06:22:43;2.97;;;2.57;;
1082;SDS011;530;51.448;7.238;2023-04-03T06:25:08;3.57;;;2.50;;
1082;SDS011;530;51.448;7.238;2023-04-03T06:27:35;4.20;;;2.33;;
1082;SDS011;530;51.448;7.238;2023-04-03T06:30:00;5.10;;;2.70;;
1082;SDS011;530;51.448;7.238;2023-04-03T06:32:26;5.00;;;2.67;;
1082;SDS011;530;51.448;7.238;2023-04-03T06:34:52;5.20;;;2.83;;
1082;SDS011;530;51.448;7.238;2023-04-03T06:37:19;6.63;;;2.47;;
1082;SDS011;530;51.448;7.238;2023-04-03T06:39:46;5.50;;;2.97;;
1082;SDS011;530;51.448;7.238;2023-04-03T06:42:12;5.53;;;2.63;;
1082;SDS011;530;51.448;7.238;2023-04-03T06:44:38;4.17;;;3.50;;
1082;SDS011;530;51.448;7.238;2023-04-03T06:47:04;5.33;;;2.93;;
1082;SDS011;530;51.448;7.238;2023-04-03T06:49:30;4.60;;;2.70;;
1082;SDS011;530;51.448;7.238;2023-04-03T06:51:57;4.50;;;2.60;;
1082;SDS011;530;51.448;7.238;2023-04-03T06:54:23;4.07;;;2.90;;
1082;SDS011;530;51.448;7.238;2023-04-03T06:56:49;4.07;;;2.60;;
1082;SDS011;530;51.448;7.238;2023-04-03T06:59:15;4.83;;;2.63;;
1082;SDS011;530;51.448;7.238;2023-04-03T07:01:41;4.40;;;2.00;;
1082;SDS011;530;51.448;7.238;2023-04-03T07:04:07;6.67;;;3.00;;
1082;SDS011;530;51.448;7.238;2023-04-03T07:06:33;5.93;;;2.83;;
1082;SDS011;530;51.448;7.238;2023-04-03T07:09:00;5.20;;;2.60;;
1082;SDS011;530;51.448;7.238;2023-04-03T07:11:25;6.77;;;2.20;;
1082;SDS011;530;51.448;7.238;2023-04-03T07:13:52;4.43;;;1.70;;
1082;SDS011;530;51.448;7.238;2023-04-03T07:16:18;3.20;;;2.00;;
1082;SDS011;530;51.448;7.238;2023-04-03T07:18:44;2.93;;;2.10;;
1082;SDS011;530;51.448;7.238;2023-04-03T07:21:10;3.13;;;1.90;;
1082;SDS011;530;51.448;7.238;2023-04-03T07:23:36;2.20;;;2.00;;
1082;SDS011;530;51.448;7.238;2023-04-03T07:26:02;3.30;;;2.40;;
1082;SDS011;530;51.448;7.238;2023-04-03T07:28:28;4.53;;;2.47;;
1082;SDS011;530;51.448;7.238;2023-04-03T07:31:01;3.73;;;2.20;;
1082;SDS011;530;51.448;7.238;2023-04-03T07:33:29;4.07;;;2.00;;
1082;SDS011;530;51.448;7.238;2023-04-03T07:35:56;2.63;;;1.50;;
1082;SDS011;530;51.448;7.238;2023-04-03T07:38:21;8.10;;;2.33;;
1082;SDS011;530;51.448;7.238;2023-04-03T07:40:48;2.50;;;2.03;;
1082;SDS011;530;51.448;7.238;2023-04-03T07:43:17;3.40;;;1.93;;
1082;SDS011;530;51.448;7.238;2023-04-03T07:45:43;3.50;;;1.83;;
1082;SDS011;530;51.448;7.238;2023-04-03T07:48:10;2.67;;;1.90;;
1082;SDS011;530;51.448;7.238;2023-04-03T07:50:36;2.77;;;1.57;;
1082;SDS011;530;51.448;7.238;2023-04-03T07:53:02;4.40;;;2.20;;
1082;SDS011;530;51.448;7.238;2023-04-03T07:55:28;5.30;;;2.20;;
1082;SDS011;530;51.448;7.238;2023-04-03T07:57:54;6.33;;;2.33;;
1082;SDS011;530;51.448;7.238;2023-04-03T08:00:20;4.87;;;1.73;;
1082;SDS011;530;51.448;7.238;2023-04-03T08:02:46;3.00;;;1.90;;
1082;SDS011;530;51.448;7.238;2023-04-03T08:05:19;10.20;;;3.10;;
1082;SDS011;530;51.448;7.238;2023-04-03T08:07:46;4.13;;;1.57;;
1082;SDS011;530;51.448;7.238;2023-04-03T08:10:12;3.70;;;1.63;;
1082;SDS011;530;51.448;7.238;2023-04-03T08:12:39;3.80;;;1.70;;
1082;SDS011;530;51.448;7.238;2023-04-03T08:15:05;3.40;;;1.60;;
1082;SDS011;530;51.448;7.238;2023-04-03T08:17:32;5.47;;;1.77;;
1082;SDS011;530;51.448;7.238;2023-04-03T08:19:57;5.90;;;2.10;;
1082;SDS011;530;51.448;7.238;2023-04-03T08:22:23;2.97;;;1.60;;
1082;SDS011;530;51.448;7.238;2023-04-03T08:24:49;4.03;;;1.67;;
1082;SDS011;530;51.448;7.238;2023-04-03T08:27:15;5.93;;;1.80;;
1082;SDS011;530;51.448;7.238;2023-04-03T08:29:41;6.20;;;1.93;;
1082;SDS011;530;51.448;7.238;2023-04-03T08:32:07;3.53;;;1.47;;
1082;SDS011;530;51.448;7.238;2023-04-03T08:34:32;5.10;;;2.30;;
1082;SDS011;530;51.448;7.238;2023-04-03T08:37:00;3.50;;;1.67;;
1082;SDS011;530;51.448;7.238;2023-04-03T08:39:26;3.70;;;1.87;;
1082;SDS011;530;51.448;7.238;2023-04-03T08:41:52;4.03;;;1.67;;
1082;SDS011;530;51.448;7.238;2023-04-03T08:52:30;4.90;;;1.80;;
1082;SDS011;530;51.448;7.238;2023-04-03T08:55:06;5.50;;;1.67;;
1082;SDS011;530;51.448;7.238;2023-04-03T08:57:41;3.60;;;1.87;;
1082;SDS011;530;51.448;7.238;2023-04-03T09:00:20;2.30;;;1.50;;
1082;SDS011;530;51.448;7.238;2023-04-03T09:05:16;3.93;;;1.70;;
1082;SDS011;530;51.448;7.238;2023-04-03T09:10:59;2.53;;;1.33;;
1082;SDS011;530;51.448;7.238;2023-04-03T09:24:39;4.43;;;1.90;;
1082;SDS011;530;51.448;7.238;2023-04-03T09:27:05;2.70;;;1.60;;
1082;SDS011;530;51.448;7.238;2023-04-03T09:29:36;2.30;;;1.33;;
1082;SDS011;530;51.448;7.238;2023-04-03T09:35:14;2.27;;;1.27;;
1082;SDS011;530;51.448;7.238;2023-04-03T09:37:55;4.10;;;1.70;;
1082;SDS011;530;51.448;7.238;2023-04-03T09:42:51;3.20;;;1.40;;
1082;SDS011;530;51.448;7.238;2023-04-03T09:48:07;2.27;;;1.30;;
1082;SDS011;530;51.448;7.238;2023-04-03T09:56:27;3.50;;;1.80;;
1082;SDS011;530;51.448;7.238;2023-04-03T10:06:29;2.27;;;1.20;;
1082;SDS011;530;51.448;7.238;2023-04-03T10:09:03;2.90;;;1.10;;
1082;SDS011;530;51.448;7.238;2023-04-03T10:14:33;2.07;;;1.13;;
1082;SDS011;530;51.448;7.238;2023-04-03T10:28:01;5.33;;;1.70;;
1082;SDS011;530;51.448;7.238;2023-04-03T10:36:38;1.83;;;1.43;;
1082;SDS011;530;51.448;7.238;2023-04-03T10:47:14;3.50;;;1.63;;
1082;SDS011;530;51.448;7.238;2023-04-03T10:57:59;2.37;;;1.33;;
1082;SDS011;530;51.448;7.238;2023-04-03T11:00:45;2.63;;;1.37;;
1082;SDS011;530;51.448;7.238;2023-04-03T11:05:56;2.03;;;1.57;;
1082;SDS011;530;51.448;7.238;2023-04-03T11:11:30;1.60;;;1.30;;
1082;SDS011;530;51.448;7.238;2023-04-03T11:16:28;4.57;;;1.23;;
1082;SDS011;530;51.448;7.238;2023-04-03T11:19:07;1.93;;;1.03;;
1082;SDS011;530;51.448;7.238;2023-04-03T11:24:34;1.80;;;0.97;;
1082;SDS011;530;51.448;7.238;2023-04-03T11:27:05;2.10;;;1.33;;
1082;SDS011;530;51.448;7.238;2023-04-03T11:29:37;2.40;;;1.43;;
1082;SDS011;530;51.448;7.238;2023-04-03T11:34:56;3.93;;;1.40;;
1082;SDS011;530;51.448;7.238;2023-04-03T11:40:04;3.47;;;1.47;;
1082;SDS011;530;51.448;7.238;2023-04-03T11:42:48;4.47;;;1.40;;
1082;SDS011;530;51.448;7.238;2023-04-03T11:47:57;1.33;;;1.00;;
1082;SDS011;530;51.448;7.238;2023-04-03T12:24:26;2.03;;;1.20;;
1082;SDS011;530;51.448;7.238;2023-04-03T12:40:31;2.27;;;1.30;;
1082;SDS011;530;51.448;7.238;2023-04-03T12:48:22;1.60;;;0.93;;
1082;SDS011;530;51.448;7.238;2023-04-03T12:50:51;2.27;;;1.40;;
1082;SDS011;530;51.448;7.238;2023-04-03T12:53:27;3.10;;;1.03;;
1082;SDS011;530;51.448;7.238;2023-04-03T12:56:44;3.00;;;1.37;;
1082;SDS011;530;51.448;7.238;2023-04-03T12:58:56;1.77;;;1.30;;
1082;SDS011;530;51.448;7.238;2023-04-03T13:01:40;1.70;;;1.07;;
1082;SDS011;530;51.448;7.238;2023-04-03T13:04:05;1.40;;;1.10;;
1082;SDS011;530;51.448;7.238;2023-04-03T13:06:32;2.23;;;1.53;;
1082;SDS011;530;51.448;7.238;2023-04-03T13:09:04;1.77;;;1.03;;
1082;SDS011;530;51.448;7.238;2023-04-03T13:11:31;2.73;;;1.20;;
1082;SDS011;530;51.448;7.238;2023-04-03T13:14:02;1.07;;;0.97;;
1082;SDS011;530;51.448;7.238;2023-04-03T13:16:39;1.40;;;1.30;;
1082;SDS011;530;51.448;7.238;2023-04-03T13:19:06;4.23;;;1.33;;
1082;SDS011;530;51.448;7.238;2023-04-03T13:21:43;2.03;;;1.13;;
1082;SDS011;530;51.448;7.238;2023-04-03T13:24:10;5.53;;;1.20;;
1082;SDS011;530;51.448;7.238;2023-04-03T13:26:37;2.30;;;1.50;;
1082;SDS011;530;51.448;7.238;2023-04-03T13:29:04;2.90;;;1.20;;
1082;SDS011;530;51.448;7.238;2023-04-03T13:31:34;2.80;;;1.30;;
1082;SDS011;530;51.448;7.238;2023-04-03T13:36:45;1.57;;;1.00;;
1082;SDS011;530;51.448;7.238;2023-04-03T13:41:45;2.83;;;1.10;;
1082;SDS011;530;51.448;7.238;2023-04-03T13:46:42;1.67;;;1.30;;
1082;SDS011;530;51.448;7.238;2023-04-03T13:51:59;1.30;;;1.20;;
1082;SDS011;530;51.448;7.238;2023-04-03T13:54:30;2.53;;;1.30;;
1082;SDS011;530;51.448;7.238;2023-04-03T13:57:01;2.40;;;1.10;;
1082;SDS011;530;51.448;7.238;2023-04-03T13:59:32;2.83;;;1.07;;
1082;SDS011;530;51.448;7.238;2023-04-03T14:07:10;1.07;;;0.97;;
1082;SDS011;530;51.448;7.238;2023-04-03T14:09:36;1.40;;;1.20;;
1082;SDS011;530;51.448;7.238;2023-04-03T14:12:05;2.80;;;0.90;;
1082;SDS011;530;51.448;7.238;2023-04-03T14:14:39;2.00;;;1.30;;
1082;SDS011;530;51.448;7.238;2023-04-03T14:17:16;2.93;;;1.50;;
1082;SDS011;530;51.448;7.238;2023-04-03T14:19:44;2.40;;;1.57;;
1082;SDS011;530;51.448;7.238;2023-04-03T14:24:46;2.80;;;1.20;;
1082;SDS011;530;51.448;7.238;2023-04-03T14:27:17;2.83;;;1.40;;
1082;SDS011;530;51.448;7.238;2023-04-03T14:29:46;1.73;;;1.20;;
1082;SDS011;530;51.448;7.238;2023-04-03T14:32:13;2.93;;;1.30;;
1082;SDS011;530;51.448;7.238;2023-04-03T14:34:41;1.87;;;1.13;;
1082;SDS011;530;51.448;7.238;2023-04-03T14:37:12;2.10;;;1.17;;
1082;SDS011;530;51.448;7.238;2023-04-03T14:39:40;1.57;;;1.20;;
1082;SDS011;530;51.448;7.238;2023-04-03T14:42:11;1.97;;;1.20;;
1082;SDS011;530;51.448;7.238;2023-04-03T14:44:39;1.43;;;1.23;;
1082;SDS011;530;51.448;7.238;2023-04-03T14:47:08;2.80;;;1.17;;
1082;SDS011;530;51.448;7.238;2023-04-03T14:49:38;0.97;;;0.87;;
1082;SDS011;530;51.448;7.238;2023-04-03T14:52:04;2.47;;;1.23;;
1082;SDS011;530;51.448;7.238;2023-04-03T14:54:30;4.73;;;1.67;;
1082;SDS011;530;51.448;7.238;2023-04-03T14:56:57;2.03;;;1.03;;
1082;SDS011;530;51.448;7.238;2023-04-03T14:59:24;2.00;;;1.50;;
1082;SDS011;530;51.448;7.238;2023-04-03T15:01:50;1.97;;;1.13;;
1082;SDS011;530;51.448;7.238;2023-04-03T15:04:17;2.80;;;1.30;;
1082;SDS011;530;51.448;7.238;2023-04-03T15:06:45;2.47;;;1.33;;
1082;SDS011;530;51.448;7.238;2023-04-03T15:09:34;4.00;;;1.43;;
1082;SDS011;530;51.448;7.238;2023-04-03T15:12:00;3.00;;;1.67;;
1082;SDS011;530;51.448;7.238;2023-04-03T15:14:26;3.17;;;1.60;;
1082;SDS011;530;51.448;7.238;2023-04-03T15:16:51;3.00;;;1.40;;
1082;SDS011;530;51.448;7.238;2023-04-03T15:19:17;2.63;;;1.30;;
1082;SDS011;530;51.448;7.238;2023-04-03T15:21:43;2.77;;;1.53;;
1082;SDS011;530;51.448;7.238;2023-04-03T15:24:09;1.90;;;1.30;;
1082;SDS011;530;51.448;7.238;2023-04-03T15:26:35;4.30;;;1.30;;
1082;SDS011;530;51.448;7.238;2023-04-03T15:29:01;3.80;;;1.43;;
1082;SDS011;530;51.448;7.238;2023-04-03T15:31:28;3.93;;;1.10;;
1082;SDS011;530;51.448;7.238;2023-04-03T15:33:53;1.40;;;1.20;;
1082;SDS011;530;51.448;7.238;2023-04-03T15:36:19;2.37;;;1.40;;
1082;SDS011;530;51.448;7.238;2023-04-03T15:38:45;3.80;;;1.80;;
1082;SDS011;530;51.448;7.238;2023-04-03T15:41:10;4.83;;;1.77;;
1082;SDS011;530;51.448;7.238;2023-04-03T15:43:37;2.97;;;1.73;;
1082;SDS011;530;51.448;7.238;2023-04-03T15:46:02;1.77;;;1.30;;
1082;SDS011;530;51.448;7.238;2023-04-03T15:48:28;2.43;;;1.43;;
1082;SDS011;530;51.448;7.238;2023-04-03T15:50:54;2.40;;;1.97;;
1082;SDS011;530;51.448;7.238;2023-04-03T15:53:20;3.50;;;1.50;;
1082;SDS011;530;51.448;7.238;2023-04-03T15:55:46;4.30;;;1.73;;
1082;SDS011;530;51.448;7.238;2023-04-03T15:58:11;4.60;;;1.70;;
1082;SDS011;530;51.448;7.238;2023-04-03T16:00:37;1.83;;;1.50;;
1082;SDS011;530;51.448;7.238;2023-04-03T16:03:05;3.80;;;1.70;;
1082;SDS011;530;51.448;7.238;2023-04-03T16:05:35;2.90;;;1.50;;
1082;SDS011;530;51.448;7.238;2023-04-03T16:08:02;1.80;;;1.70;;
1082;SDS011;530;51.448;7.238;2023-04-03T16:10:28;2.27;;;1.80;;
1082;SDS011;530;51.448;7.238;2023-04-03T16:12:54;1.70;;;1.60;;
1082;SDS011;530;51.448;7.238;2023-04-03T16:15:20;2.60;;;1.77;;
1082;SDS011;530;51.448;7.238;2023-04-03T16:17:46;2.30;;;2.00;;
1082;SDS011;530;51.448;7.238;2023-04-03T16:20:13;3.43;;;1.40;;
1082;SDS011;530;51.448;7.238;2023-04-03T16:22:39;3.60;;;2.43;;
1082;SDS011;530;51.448;7.238;2023-04-03T16:25:06;3.10;;;1.47;;
1082;SDS011;530;51.448;7.238;2023-04-03T16:27:33;2.70;;;1.70;;
1082;SDS011;530;51.448;7.238;2023-04-03T16:29:59;2.03;;;1.23;;
1082;SDS011;530;51.448;7.238;2023-04-03T16:32:25;3.20;;;1.33;;
1082;SDS011;530;51.448;7.238;2023-04-03T16:34:53;2.73;;;1.43;;
1082;SDS011;530;51.448;7.238;2023-04-03T16:37:19;2.40;;;1.37;;
1082;SDS011;530;51.448;7.238;2023-04-03T16:39:45;2.93;;;1.50;;
1082;SDS011;530;51.448;7.238;2023-04-03T16:42:11;3.63;;;1.40;;
1082;SDS011;530;51.448;7.238;2023-04-03T16:44:37;3.27;;;1.60;;
1082;SDS011;530;51.448;7.238;2023-04-03T16:47:04;2.03;;;1.50;;
1082;SDS011;530;51.448;7.238;2023-04-03T16:49:32;2.93;;;1.50;;
1082;SDS011;530;51.448;7.238;2023-04-03T16:51:59;5.13;;;1.50;;
1082;SDS011;530;51.448;7.238;2023-04-03T16:54:26;2.37;;;2.03;;
1082;SDS011;530;51.448;7.238;2023-04-03T16:56:52;2.77;;;1.20;;
1082;SDS011;530;51.448;7.238;2023-04-03T16:59:17;3.43;;;1.53;;
1082;SDS011;530;51.448;7.238;2023-04-03T17:01:43;2.40;;;1.50;;
1082;SDS011;530;51.448;7.238;2023-04-03T17:04:09;3.23;;;1.17;;
1082;SDS011;530;51.448;7.238;2023-04-03T17:06:34;1.67;;;1.17;;
1082;SDS011;530;51.448;7.238;2023-04-03T17:09:01;2.13;;;1.30;;
1082;SDS011;530;51.448;7.238;2023-04-03T17:11:27;2.67;;;1.40;;
1082;SDS011;530;51.448;7.238;2023-04-03T17:13:53;1.77;;;1.30;;
1082;SDS011;530;51.448;7.238;2023-04-03T17:16:19;2.00;;;1.63;;
1082;SDS011;530;51.448;7.238;2023-04-03T17:18:45;2.90;;;1.30;;
1082;SDS011;530;51.448;7.238;2023-04-03T17:21:12;2.13;;;1.50;;
1082;SDS011;530;51.448;7.238;2023-04-03T17:23:39;2.53;;;1.67;;
1082;SDS011;530;51.448;7.238;2023-04-03T17:26:07;4.33;;;1.30;;
1082;SDS011;530;51.448;7.238;2023-04-03T17:28:33;3.00;;;1.33;;
1082;SDS011;530;51.448;7.238;2023-04-03T17:31:01;2.03;;;1.37;;
1082;SDS011;530;51.448;7.238;2023-04-03T17:33:28;1.47;;;1.30;;
1082;SDS011;530;51.448;7.238;2023-04-03T17:35:57;2.73;;;1.73;;
1082;SDS011;530;51.448;7.238;2023-04-03T17:38:25;1.13;;;1.03;;
1082;SDS011;530;51.448;7.238;2023-04-03T17:40:51;2.73;;;1.33;;
1082;SDS011;530;51.448;7.238;2023-04-03T17:43:20;2.03;;;1.23;;
1082;SDS011;530;51.448;7.238;2023-04-03T17:45:45;2.83;;;1.53;;
1082;SDS011;530;51.448;7.238;2023-04-03T17:48:11;3.33;;;1.50;;
1082;SDS011;530;51.448;7.238;2023-04-03T17:50:37;2.50;;;1.53;;
1082;SDS011;530;51.448;7.238;2023-04-03T17:53:02;3.33;;;1.53;;
1082;SDS011;530;51.448;7.238;2023-04-03T17:55:28;2.20;;;1.10;;
1082;SDS011;530;51.448;7.238;2023-04-03T17:57:54;2.10;;;1.50;;
1082;SDS011;530;51.448;7.238;2023-04-03T18:00:20;3.33;;;1.23;;
1082;SDS011;530;51.448;7.238;2023-04-03T18:02:45;1.27;;;1.17;;
1082;SDS011;530;51.448;7.238;2023-04-03T18:05:11;1.57;;;1.30;;
1082;SDS011;530;51.448;7.238;2023-04-03T18:07:37;1.50;;;1.20;;
1082;SDS011;530;51.448;7.238;2023-04-03T18:10:04;2.40;;;1.50;;
1082;SDS011;530;51.448;7.238;2023-04-03T18:12:32;2.10;;;1.27;;
1082;SDS011;530;51.448;7.238;2023-04-03T18:14:59;1.67;;;1.37;;
1082;SDS011;530;51.448;7.238;2023-04-03T18:17:25;1.60;;;1.07;;
1082;SDS011;530;51.448;7.238;2023-04-03T18:19:54;1.67;;;1.57;;
1082;SDS011;530;51.448;7.238;2023-04-03T18:22:20;2.63;;;1.23;;
1082;SDS011;530;51.448;7.238;2023-04-03T18:24:48;3.57;;;1.40;;
1082;SDS011;530;51.448;7.238;2023-04-03T18:27:16;2.43;;;1.40;;
1082;SDS011;530;51.448;7.238;2023-04-03T18:29:45;1.50;;;1.40;;